This is the latest recevied weather packets stored in our database for station/object K6POO-1. If no packets are shown the sender has not sent any weather packets the latest 10 day(s).
| Time | Temp. | Humidity | Pressure | Rain* | Wind** | Luminosity | Snow |
|---|---|---|---|---|---|---|---|
| 1777525675 | 13.33° C | 73% | 1016.8 hPa | 0 mm | - | 0 W/m² | - |
| 1777525372 | 13.89° C | 70% | 1016.7 hPa | 0 mm | - | 0 W/m² | - |
| 1777525067 | 13.33° C | 74% | 1017 hPa | 0 mm | - | 0 W/m² | - |
| 1777524764 | 13.33° C | 74% | 1016.7 hPa | 0 mm | - | 0 W/m² | - |
| 1777524463 | 13.33° C | 73% | 1016.8 hPa | 0 mm | - | 0 W/m² | - |
| 1777524159 | 13.89° C | 72% | 1016.8 hPa | 0 mm | - | 0 W/m² | - |
| 1777523855 | 13.33° C | 71% | 1016.7 hPa | 0 mm | - | 0 W/m² | - |
| 1777523552 | 13.33° C | 74% | 1016.7 hPa | 0 mm | - | 0 W/m² | - |
| 1777523248 | 13.33° C | 73% | 1016.7 hPa | 0 mm | - | 0 W/m² | - |
| 1777522944 | 13.33° C | 73% | 1016.6 hPa | 0 mm | - | 0 W/m² | - |
| 1777522641 | 13.33° C | 72% | 1016.9 hPa | 0 mm | - | 0 W/m² | - |
| 1777522338 | 13.89° C | 71% | 1016.7 hPa | 0 mm | - | 0 W/m² | - |
| 1777522035 | 13.89° C | 70% | 1016.7 hPa | 0 mm | - | 0 W/m² | - |
| 1777521731 | 13.89° C | 70% | 1016.6 hPa | 0 mm | - | 0 W/m² | - |
| 1777521428 | 13.89° C | 69% | 1016.5 hPa | 0 mm | - | 0 W/m² | - |
| 1777521125 | 14.44° C | 68% | 1016.4 hPa | 0 mm | - | 0 W/m² | - |
| 1777520823 | 14.44° C | 66% | 1016.3 hPa | 0 mm | - | 0 W/m² | - |
| 1777520520 | 15° C | 64% | 1016.2 hPa | 0 mm | - | 0 W/m² | - |
| 1777520216 | 15.56° C | 57% | 1015.8 hPa | 0 mm | - | 0 W/m² | - |
| 1777519914 | 16.11° C | 45% | 1016.1 hPa | 0 mm | - | 0 W/m² | - |
| 1777519611 | 16.11° C | 48% | 1016.1 hPa | 0 mm | - | 0 W/m² | - |
| 1777519307 | 16.67° C | 46% | 1015.9 hPa | 0 mm | - | 0 W/m² | - |
| 1777519003 | 16.67° C | 42% | 1016.1 hPa | 0 mm | - | 0 W/m² | - |
| 1777518700 | 16.11° C | 45% | 1016 hPa | 0 mm | - | 0 W/m² | - |
| 1777518397 | 16.11° C | 46% | 1015.9 hPa | 0 mm | - | 1 W/m² | - |
* Rain latest hour (hover to see other rain measurements)
** Current wind speed in m/s (hover to see current wind gust speed)